Time;durP1;ratioP1;P1;durP2;ratioP2;P2;SDS_P1;SDS_P2;PMS_P1;PMS_P2;Temp;Humidity;BMP_temperature;BMP_pressure;BME280_temperature;BME280_humidity;BME280_pressure;Samples;Min_cycle;Max_cycle;Signal;HPM_P1;HPM_P2
2022/09/03 00:00:07;;;;;;;3.88;0.90;;;17.90;58.60;;;;;;5038550;28;20483;-36
2022/09/03 00:02:35;;;;;;;1.95;0.60;;;17.80;58.10;;;;;;5044761;28;20029;-36
2022/09/03 00:05:17;;;;;;;2.58;0.45;;;17.80;58.40;;;;;;5034091;28;20503;-36
2022/09/03 00:07:53;;;;;;;3.00;0.52;;;17.80;59.00;;;;;;5031261;28;20037;-36
2022/09/03 00:10:43;;;;;;;2.92;0.63;;;17.70;59.60;;;;;;5041506;28;20083;-37
2022/09/03 00:13:15;;;;;;;1.25;0.52;;;17.70;60.10;;;;;;5042801;28;20498;-36
2022/09/03 00:15:41;;;;;;;3.15;0.50;;;17.60;59.60;;;;;;5039635;28;20080;-36
2022/09/03 00:18:15;;;;;;;3.92;0.50;;;17.60;60.10;;;;;;5036795;28;20069;-37
2022/09/03 00:20:42;;;;;;;1.00;0.50;;;17.50;60.80;;;;;;5037933;28;20068;-36
2022/09/03 00:23:15;;;;;;;1.45;0.60;;;17.50;60.90;;;;;;5038569;28;20049;-37
2022/09/03 00:25:53;;;;;;;2.95;0.80;;;17.50;61.60;;;;;;5036389;28;20072;-37
2022/09/03 00:28:32;;;;;;;0.73;0.40;;;17.40;62.20;;;;;;5039350;28;20124;-36
2022/09/03 00:31:20;;;;;;;1.60;0.50;;;17.40;61.80;;;;;;5038621;28;20049;-36
2022/09/03 00:33:49;;;;;;;1.23;0.52;;;17.40;63.70;;;;;;5037430;28;20040;-36
2022/09/03 00:36:24;;;;;;;3.03;0.50;;;17.40;62.10;;;;;;5041480;28;20110;-37
2022/09/03 00:38:51;;;;;;;2.05;0.45;;;17.30;63.10;;;;;;5033916;28;20591;-36
2022/09/03 00:41:26;;;;;;;2.17;0.60;;;17.30;62.60;;;;;;5040481;28;20040;-36
2022/09/03 00:44:13;;;;;;;3.03;0.50;;;17.30;63.30;;;;;;5044748;28;20045;-36
2022/09/03 00:46:52;;;;;;;4.28;1.05;;;17.30;63.10;;;;;;5035256;28;20087;-36
2022/09/03 00:49:31;;;;;;;2.20;0.50;;;17.30;62.30;;;;;;5037333;28;20036;-36
2022/09/03 00:52:00;;;;;;;2.63;0.60;;;17.30;62.70;;;;;;5039866;28;20024;-37
2022/09/03 00:54:35;;;;;;;3.22;0.50;;;17.30;62.70;;;;;;5038728;28;20045;-36
2022/09/03 00:57:12;;;;;;;2.03;0.50;;;17.30;62.80;;;;;;5038601;28;20056;-38
2022/09/03 00:59:48;;;;;;;1.08;0.50;;;17.30;62.30;;;;;;5039681;28;20029;-36
2022/09/03 01:02:35;;;;;;;2.47;0.50;;;17.30;62.30;;;;;;5036553;28;20078;-37
2022/09/03 01:05:09;;;;;;;1.58;0.60;;;17.30;62.80;;;;;;5038536;28;20116;-36
2022/09/03 01:07:54;;;;;;;4.50;0.50;;;17.30;62.70;;;;;;5040342;28;20033;-36
2022/09/03 01:10:43;;;;;;;1.60;0.50;;;17.30;63.10;;;;;;5040313;28;20037;-36
2022/09/03 01:13:44;;;;;;;3.97;0.65;;;17.30;62.50;;;;;;5038349;28;20119;-36
2022/09/03 01:16:19;;;;;;;9.15;0.60;;;17.30;63.40;;;;;;5036926;28;20037;-37
2022/09/03 01:19:10;;;;;;;1.15;0.50;;;17.30;63.00;;;;;;5042709;28;20033;-36
2022/09/03 01:21:48;;;;;;;1.38;0.52;;;17.20;63.40;;;;;;5039882;28;20060;-36
2022/09/03 01:24:52;;;;;;;3.50;0.50;;;17.20;62.50;;;;;;5037591;28;20095;-35
2022/09/03 01:27:36;;;;;;;8.57;0.60;;;17.20;63.80;;;;;;5041634;28;20486;-36
2022/09/03 01:30:06;;;;;;;1.20;0.50;;;17.20;63.60;;;;;;5037288;28;20446;-36
2022/09/03 01:33:05;;;;;;;0.85;0.40;;;17.10;64.20;;;;;;5037509;28;20041;-35
2022/09/03 01:35:56;;;;;;;1.75;0.40;;;17.10;63.30;;;;;;5034362;28;20050;-36
2022/09/03 01:38:36;;;;;;;1.58;0.40;;;17.00;63.80;;;;;;5037579;28;20578;-36
2022/09/03 01:44:33;;;;;;;2.28;0.43;;;17.00;63.60;;;;;;5034399;28;20037;-36
2022/09/03 01:47:32;;;;;;;1.15;0.50;;;17.00;63.40;;;;;;5038227;28;20048;-37
2022/09/03 01:50:12;;;;;;;1.98;0.55;;;17.00;64.30;;;;;;5039445;28;20064;-37
2022/09/03 01:53:24;;;;;;;1.75;0.40;;;16.90;64.20;;;;;;5037504;28;20042;-35
2022/09/03 01:56:12;;;;;;;1.58;0.50;;;16.90;64.50;;;;;;5034875;28;20053;-35
2022/09/03 01:58:43;;;;;;;2.80;0.45;;;16.80;64.60;;;;;;5036594;28;20481;-35
2022/09/03 02:01:20;;;;;;;2.83;0.50;;;16.80;64.80;;;;;;5036817;28;20033;-37
2022/09/03 02:03:47;;;;;;;1.20;0.40;;;16.80;65.20;;;;;;5032619;28;20087;-36
2022/09/03 02:06:14;;;;;;;3.88;0.45;;;16.70;65.30;;;;;;5039342;28;20478;-36
2022/09/03 02:08:40;;;;;;;2.10;0.50;;;16.60;65.50;;;;;;5037914;28;20037;-36
2022/09/03 02:11:08;;;;;;;1.80;0.40;;;16.60;65.80;;;;;;5040867;28;20130;-36
2022/09/03 02:13:36;;;;;;;3.95;0.40;;;16.60;67.40;;;;;;5040192;28;20087;-36
2022/09/03 02:16:10;;;;;;;1.88;0.40;;;16.60;66.60;;;;;;5037681;28;20033;-35
2022/09/03 02:18:41;;;;;;;0.70;0.35;;;16.60;66.90;;;;;;5035914;28;20120;-36
2022/09/03 02:21:09;;;;;;;5.15;0.52;;;16.50;66.80;;;;;;5038166;28;20041;-36
2022/09/03 02:23:38;;;;;;;0.60;0.30;;;16.50;66.80;;;;;;5038481;28;20026;-36
2022/09/03 02:26:07;;;;;;;3.08;0.57;;;16.50;68.10;;;;;;5038072;28;20083;-35
2022/09/03 02:28:33;;;;;;;1.48;0.35;;;16.50;66.90;;;;;;5042546;28;20042;-37
2022/09/03 02:30:59;;;;;;;0.93;0.40;;;16.50;67.00;;;;;;5043105;28;20045;-37
2022/09/03 02:33:25;;;;;;;0.80;0.32;;;16.50;66.80;;;;;;5039210;28;20041;-36
2022/09/03 02:35:52;;;;;;;1.38;0.30;;;16.50;66.80;;;;;;5043408;28;20044;-39
2022/09/03 02:38:27;;;;;;;0.93;0.30;;;16.50;66.70;;;;;;5038969;28;20072;-36
2022/09/03 02:40:53;;;;;;;2.47;0.57;;;16.50;66.90;;;;;;5042425;28;20052;-36
2022/09/03 02:43:26;;;;;;;1.58;0.50;;;16.60;66.90;;;;;;5047219;28;20087;-36
2022/09/03 02:45:58;;;;;;;2.10;0.50;;;16.50;66.80;;;;;;5034515;28;20049;-36
2022/09/03 02:48:24;;;;;;;2.75;0.60;;;16.50;66.60;;;;;;5041143;28;20047;-36
2022/09/03 02:50:50;;;;;;;1.58;0.50;;;16.50;66.50;;;;;;5037485;28;20482;-35
2022/09/03 02:53:16;;;;;;;1.33;0.40;;;16.50;66.70;;;;;;5037338;28;20052;-35
2022/09/03 02:55:41;;;;;;;2.25;0.40;;;16.50;66.90;;;;;;5040201;28;20433;-35
2022/09/03 02:58:07;;;;;;;4.43;0.60;;;16.50;66.90;;;;;;5042198;28;20159;-35
2022/09/03 03:00:34;;;;;;;1.50;0.47;;;16.50;67.00;;;;;;5042759;28;20033;-35
2022/09/03 03:03:02;;;;;;;1.02;0.40;;;16.40;67.10;;;;;;5040885;28;20044;-35
2022/09/03 03:05:42;;;;;;;1.38;0.40;;;16.40;66.90;;;;;;5039605;28;20397;-36
2022/09/03 03:08:08;;;;;;;1.50;0.50;;;16.40;66.90;;;;;;5041152;28;20045;-35
2022/09/03 03:10:34;;;;;;;4.00;0.45;;;16.40;66.90;;;;;;5036953;28;20047;-36
2022/09/03 03:13:00;;;;;;;0.80;0.40;;;16.40;67.00;;;;;;5035087;28;20041;-36
2022/09/03 03:15:27;;;;;;;3.35;0.40;;;16.30;67.10;;;;;;5035794;28;20037;-35
2022/09/03 03:17:55;;;;;;;1.73;0.30;;;16.30;67.30;;;;;;5033570;28;20073;-35
2022/09/03 03:20:22;;;;;;;3.20;0.40;;;16.30;67.50;;;;;;5040735;28;20041;-36
2022/09/03 03:22:47;;;;;;;0.57;0.30;;;16.30;67.90;;;;;;5036682;28;20438;-38
2022/09/03 03:25:13;;;;;;;4.22;0.50;;;16.20;67.80;;;;;;5035263;28;20061;-36
2022/09/03 03:27:41;;;;;;;0.95;0.40;;;16.20;67.80;;;;;;5045397;28;20044;-36
2022/09/03 03:30:09;;;;;;;1.83;0.60;;;16.20;68.20;;;;;;5039572;28;20490;-36
2022/09/03 03:32:38;;;;;;;2.65;0.50;;;16.20;68.40;;;;;;5042975;28;20502;-36
2022/09/03 03:35:05;;;;;;;2.25;0.50;;;16.20;68.30;;;;;;5040510;28;20052;-37
2022/09/03 03:37:31;;;;;;;0.50;0.30;;;16.10;68.50;;;;;;5041220;28;20072;-36
2022/09/03 03:39:57;;;;;;;3.67;0.50;;;16.20;68.40;;;;;;5040686;28;20037;-35
2022/09/03 03:42:23;;;;;;;5.50;0.70;;;16.10;69.50;;;;;;5038389;28;20036;-35
2022/09/03 03:44:49;;;;;;;2.83;0.50;;;16.10;68.60;;;;;;5041118;28;20095;-35
2022/09/03 03:47:15;;;;;;;0.88;0.30;;;16.10;68.90;;;;;;5037027;28;20032;-36
2022/09/03 03:49:42;;;;;;;0.95;0.40;;;16.10;68.80;;;;;;5039027;28;20087;-35
2022/09/03 03:52:08;;;;;;;1.23;0.47;;;16.10;69.00;;;;;;5034396;28;20077;-35
2022/09/03 03:54:34;;;;;;;1.90;0.40;;;16.00;69.20;;;;;;5035453;28;20289;-35
2022/09/03 03:57:00;;;;;;;3.33;0.43;;;16.00;69.50;;;;;;5043036;28;20033;-35
2022/09/03 03:59:25;;;;;;;2.95;0.30;;;16.00;69.70;;;;;;5035233;28;20034;-36
2022/09/03 04:01:53;;;;;;;1.27;0.30;;;15.90;69.80;;;;;;5034164;28;20168;-36
2022/09/03 04:04:19;;;;;;;2.67;0.40;;;15.90;70.10;;;;;;5035172;28;20526;-36
2022/09/03 04:06:45;;;;;;;1.98;0.60;;;15.80;70.40;;;;;;5042184;28;20033;-36
2022/09/03 04:09:11;;;;;;;1.83;0.30;;;15.80;70.70;;;;;;5039589;28;21364;-35
2022/09/03 04:11:37;;;;;;;0.43;0.25;;;15.80;71.10;;;;;;5040070;28;20036;-35
2022/09/03 04:14:03;;;;;;;2.83;0.40;;;15.70;71.20;;;;;;5040875;28;20090;-35
2022/09/03 04:16:31;;;;;;;3.72;0.45;;;15.70;71.40;;;;;;5033686;28;20041;-35
2022/09/03 04:18:57;;;;;;;0.90;0.40;;;15.70;71.80;;;;;;5036429;28;20423;-35
2022/09/03 04:21:27;;;;;;;0.80;0.40;;;15.60;72.20;;;;;;5035776;28;20037;-36
2022/09/03 04:23:54;;;;;;;0.45;0.20;;;15.60;72.50;;;;;;5037600;28;20037;-36
2022/09/03 04:26:23;;;;;;;1.80;0.30;;;15.50;72.50;;;;;;5036270;28;20140;-36
2022/09/03 04:28:48;;;;;;;3.28;0.40;;;15.50;72.80;;;;;;5037755;28;20041;-36
2022/09/03 04:31:16;;;;;;;1.95;0.30;;;15.50;73.00;;;;;;5035736;28;20037;-36
2022/09/03 04:33:42;;;;;;;0.63;0.30;;;15.40;73.00;;;;;;5039814;28;20055;-36
2022/09/03 04:36:19;;;;;;;2.58;0.30;;;15.50;73.30;;;;;;5039882;28;20379;-37
2022/09/03 04:38:47;;;;;;;2.60;0.30;;;15.40;73.70;;;;;;5036212;28;20503;-36
2022/09/03 04:41:18;;;;;;;1.42;0.52;;;15.40;73.90;;;;;;5036760;28;20041;-36
2022/09/03 04:43:44;;;;;;;1.55;0.40;;;15.40;74.10;;;;;;5041634;28;20047;-36
2022/09/03 04:46:12;;;;;;;0.80;0.40;;;15.30;74.10;;;;;;5036295;28;21386;-36
2022/09/03 04:48:39;;;;;;;2.05;0.32;;;15.30;74.50;;;;;;5033706;28;20041;-36
2022/09/03 04:51:10;;;;;;;1.00;0.50;;;15.20;74.70;;;;;;5038112;28;20068;-36
2022/09/03 04:53:39;;;;;;;1.25;0.40;;;15.30;75.20;;;;;;5033617;28;20430;-37
2022/09/03 04:56:16;;;;;;;2.15;0.40;;;15.20;75.30;;;;;;5036093;28;20048;-37
2022/09/03 04:58:42;;;;;;;1.80;0.35;;;15.20;75.60;;;;;;5036745;28;20032;-37
2022/09/03 05:01:16;;;;;;;0.88;0.40;;;15.20;75.50;;;;;;5036101;28;20043;-37
2022/09/03 05:03:43;;;;;;;1.15;0.30;;;15.10;75.80;;;;;;5035172;28;20037;-36
2022/09/03 05:06:09;;;;;;;0.60;0.30;;;15.10;75.90;;;;;;5040119;28;20051;-36
2022/09/03 05:08:36;;;;;;;1.35;0.30;;;15.10;76.40;;;;;;5039180;28;20045;-37
2022/09/03 05:11:03;;;;;;;1.80;0.40;;;15.10;76.60;;;;;;5036299;28;20533;-37
2022/09/03 05:13:29;;;;;;;3.30;0.50;;;15.10;76.80;;;;;;5042155;28;20037;-36
2022/09/03 05:15:59;;;;;;;2.10;0.30;;;15.10;77.20;;;;;;5037493;28;20034;-36
2022/09/03 05:18:25;;;;;;;1.83;0.43;;;15.00;77.40;;;;;;5042259;28;20040;-36
2022/09/03 05:21:03;;;;;;;0.30;0.30;;;15.00;77.40;;;;;;5035006;28;20037;-36
2022/09/03 05:23:30;;;;;;;1.80;0.35;;;15.00;78.10;;;;;;5042043;28;20036;-37
2022/09/03 05:26:01;;;;;;;2.42;0.50;;;15.00;77.80;;;;;;5041625;28;20610;-36
2022/09/03 05:28:29;;;;;;;0.68;0.28;;;15.00;77.90;;;;;;5032014;28;20045;-36
2022/09/03 05:30:59;;;;;;;1.40;0.50;;;15.00;78.00;;;;;;5035500;28;20128;-37
2022/09/03 05:33:26;;;;;;;1.23;0.40;;;14.90;78.20;;;;;;5037304;28;20040;-36
2022/09/03 05:35:53;;;;;;;3.28;0.73;;;14.90;78.50;;;;;;5039536;28;20410;-36
2022/09/03 05:38:19;;;;;;;2.13;0.50;;;14.90;79.00;;;;;;5037321;28;21299;-37
2022/09/03 05:40:45;;;;;;;0.85;0.40;;;14.80;79.00;;;;;;5040079;28;20039;-36
2022/09/03 05:43:10;;;;;;;1.27;0.40;;;14.80;79.10;;;;;;5044054;28;20055;-36
2022/09/03 05:45:36;;;;;;;2.15;0.40;;;14.90;79.20;;;;;;5041950;28;20142;-36
2022/09/03 05:48:02;;;;;;;0.60;0.40;;;14.80;79.30;;;;;;5042550;28;20076;-36
2022/09/03 05:50:28;;;;;;;1.02;0.40;;;14.80;79.60;;;;;;5034264;28;20030;-36
2022/09/03 05:52:53;;;;;;;1.70;0.60;;;14.80;79.90;;;;;;5034792;28;20041;-35
2022/09/03 05:55:19;;;;;;;1.75;0.47;;;14.80;80.40;;;;;;5038329;28;20183;-36
2022/09/03 05:57:50;;;;;;;4.45;0.50;;;14.70;80.50;;;;;;5039705;28;20029;-36
2022/09/03 06:00:18;;;;;;;1.35;0.50;;;14.80;80.60;;;;;;5042388;28;20040;-35
2022/09/03 06:02:52;;;;;;;3.28;0.50;;;14.80;80.60;;;;;;5038648;28;20530;-35
2022/09/03 06:05:18;;;;;;;0.70;0.43;;;14.80;80.80;;;;;;5040662;28;20834;-36
2022/09/03 06:07:48;;;;;;;1.55;0.50;;;14.90;80.70;;;;;;5046112;28;20059;-36
2022/09/03 06:10:16;;;;;;;0.77;0.30;;;14.90;80.80;;;;;;5042329;28;20039;-36
2022/09/03 06:12:44;;;;;;;4.22;0.45;;;14.90;80.70;;;;;;5039490;28;20040;-36
2022/09/03 06:15:10;;;;;;;2.70;0.75;;;15.00;81.00;;;;;;5040241;28;20037;-36
2022/09/03 06:17:37;;;;;;;3.85;0.50;;;15.00;80.90;;;;;;5040807;28;20060;-36
2022/09/03 06:20:03;;;;;;;1.20;0.50;;;15.00;80.70;;;;;;5039762;28;20475;-35
2022/09/03 06:22:30;;;;;;;2.83;0.70;;;15.10;80.80;;;;;;5042308;28;20044;-36
2022/09/03 06:24:55;;;;;;;1.88;0.40;;;15.10;80.60;;;;;;5040305;28;20507;-36
2022/09/03 06:27:23;;;;;;;1.15;0.50;;;15.20;80.50;;;;;;5036501;28;20053;-36
2022/09/03 06:29:49;;;;;;;1.92;0.52;;;15.20;80.30;;;;;;5039251;28;20079;-36
2022/09/03 06:32:15;;;;;;;1.83;0.43;;;15.30;80.20;;;;;;5042832;28;20044;-36
2022/09/03 06:34:41;;;;;;;2.97;0.50;;;15.30;80.40;;;;;;5040480;28;20548;-36
2022/09/03 06:37:06;;;;;;;1.25;0.40;;;15.40;80.30;;;;;;5038209;28;20046;-36
2022/09/03 06:39:32;;;;;;;1.25;0.50;;;15.40;80.00;;;;;;5039265;28;20474;-36
2022/09/03 06:41:58;;;;;;;2.95;0.40;;;15.50;79.90;;;;;;5039605;28;20045;-35
2022/09/03 06:44:23;;;;;;;3.70;0.50;;;15.60;79.70;;;;;;5038910;28;20045;-35
2022/09/03 06:46:49;;;;;;;2.22;0.52;;;15.60;79.60;;;;;;5040308;28;20049;-36
2022/09/03 06:49:15;;;;;;;1.52;0.52;;;15.70;79.40;;;;;;5037420;28;20041;-35
2022/09/03 06:51:42;;;;;;;1.90;0.60;;;15.80;79.30;;;;;;5042323;28;20509;-36
2022/09/03 06:54:10;;;;;;;3.53;0.60;;;15.80;78.90;;;;;;5039000;28;20050;-36
2022/09/03 06:56:37;;;;;;;1.70;0.50;;;15.90;79.60;;;;;;5035196;28;20044;-37
2022/09/03 06:59:11;;;;;;;0.95;0.50;;;16.00;78.20;;;;;;5039549;28;20034;-36
2022/09/03 07:01:39;;;;;;;1.67;0.65;;;16.00;77.80;;;;;;5033382;28;20037;-35
2022/09/03 07:04:06;;;;;;;1.58;0.50;;;16.10;77.60;;;;;;5034462;28;20052;-35
2022/09/03 07:06:37;;;;;;;4.32;0.65;;;16.20;77.40;;;;;;5042995;28;20080;-36
2022/09/03 07:09:06;;;;;;;1.45;0.52;;;16.30;77.10;;;;;;5041048;28;20168;-36
2022/09/03 07:11:34;;;;;;;0.93;0.50;;;16.30;76.70;;;;;;5039666;28;20033;-36
2022/09/03 07:14:01;;;;;;;3.20;0.40;;;16.40;76.50;;;;;;5044061;28;21439;-36
2022/09/03 07:16:29;;;;;;;2.35;0.50;;;16.50;76.40;;;;;;5037788;28;20041;-36
2022/09/03 07:18:56;;;;;;;0.73;0.40;;;16.60;75.90;;;;;;5036911;28;20502;-35
2022/09/03 07:21:26;;;;;;;2.22;0.50;;;16.70;75.40;;;;;;5036272;28;20044;-37
2022/09/03 07:23:53;;;;;;;6.10;0.52;;;16.70;75.00;;;;;;5035558;28;20040;-35
2022/09/03 07:26:23;;;;;;;3.72;0.68;;;16.80;74.60;;;;;;5037444;28;20518;-36
2022/09/03 07:28:50;;;;;;;2.33;0.43;;;16.90;74.20;;;;;;5040791;28;20049;-36
2022/09/03 07:31:18;;;;;;;4.13;0.60;;;16.90;73.60;;;;;;5035560;28;20556;-36
2022/09/03 07:33:45;;;;;;;2.42;0.50;;;17.00;73.60;;;;;;5035262;28;20499;-35
2022/09/03 07:36:14;;;;;;;1.35;0.35;;;17.10;73.50;;;;;;5038858;28;20501;-35
2022/09/03 07:38:41;;;;;;;2.72;0.50;;;17.20;73.20;;;;;;5034833;28;20478;-36
2022/09/03 07:41:08;;;;;;;3.40;0.55;;;17.30;72.60;;;;;;5038830;28;20041;-36
2022/09/03 07:43:39;;;;;;;1.15;0.45;;;17.40;71.80;;;;;;5038477;28;20038;-45
2022/09/03 07:46:19;;;;;;;6.57;0.85;;;17.40;71.60;;;;;;5036921;28;20132;-37
2022/09/03 07:48:47;;;;;;;1.40;0.43;;;17.50;70.80;;;;;;5037657;28;21754;-36
2022/09/03 07:51:14;;;;;;;2.85;0.55;;;17.60;70.10;;;;;;5036990;28;20140;-37
2022/09/03 07:53:39;;;;;;;2.50;0.50;;;17.70;69.60;;;;;;5035731;28;20045;-36
2022/09/03 07:56:09;;;;;;;2.38;0.50;;;17.80;69.50;;;;;;5035972;28;20038;-36
2022/09/03 07:58:36;;;;;;;3.83;0.70;;;17.90;69.50;;;;;;5039203;28;20068;-36
2022/09/03 08:01:07;;;;;;;1.48;0.50;;;18.00;68.80;;;;;;5035469;28;20048;-35
2022/09/03 08:03:36;;;;;;;1.85;0.75;;;18.10;68.30;;;;;;5041775;28;20041;-36
2022/09/03 08:06:04;;;;;;;1.67;0.55;;;18.20;67.40;;;;;;5037883;28;20128;-35
2022/09/03 08:08:31;;;;;;;1.73;0.50;;;18.30;66.70;;;;;;5036816;28;20132;-36
2022/09/03 08:11:20;;;;;;;1.08;0.40;;;18.40;66.20;;;;;;5036305;28;20564;-36
2022/09/03 08:14:01;;;;;;;1.77;0.60;;;18.50;65.40;;;;;;5041095;28;20095;-35
2022/09/03 08:16:32;;;;;;;1.88;0.60;;;18.60;65.30;;;;;;5038057;28;20060;-35
2022/09/03 08:18:57;;;;;;;1.50;0.52;;;18.60;64.60;;;;;;5042639;28;20540;-36
2022/09/03 08:21:24;;;;;;;1.30;0.60;;;18.80;63.80;;;;;;5043215;28;20067;-35
2022/09/03 08:23:53;;;;;;;4.45;0.50;;;18.80;63.40;;;;;;5060287;22;20060;-80
2022/09/03 08:26:22;;;;;;;1.33;0.43;;;19.00;62.40;;;;;;5059448;28;20638;-81
2022/09/03 08:28:48;;;;;;;1.48;0.57;;;19.00;61.50;;;;;;5047156;28;20116;-80
2022/09/03 08:31:19;;;;;;;2.80;0.40;;;19.10;61.80;;;;;;5089913;22;20120;-36
2022/09/03 08:33:47;;;;;;;2.03;0.50;;;19.20;62.10;;;;;;5023158;28;20048;-36
2022/09/03 08:36:26;;;;;;;1.23;0.60;;;19.40;61.70;;;;;;5027120;28;20037;-36
2022/09/03 08:38:54;;;;;;;2.38;0.50;;;19.50;60.60;;;;;;5028413;28;20045;-36
2022/09/03 08:41:44;;;;;;;1.20;0.40;;;19.60;59.60;;;;;;5024013;28;20039;-36
2022/09/03 08:44:49;;;;;;;1.77;0.85;;;19.70;59.40;;;;;;5020327;28;20037;-35
2022/09/03 08:48:05;;;;;;;0.90;0.35;;;19.90;58.80;;;;;;5026532;28;20530;-36
2022/09/03 08:50:37;;;;;;;4.28;0.60;;;20.00;57.40;;;;;;5007993;28;20054;-37
2022/09/03 08:53:20;;;;;;;1.42;0.40;;;20.10;56.50;;;;;;5026860;28;20042;-36
2022/09/03 08:55:53;;;;;;;1.10;0.50;;;20.20;55.30;;;;;;5022720;28;20116;-35
2022/09/03 08:58:26;;;;;;;4.07;0.50;;;20.30;55.40;;;;;;5021123;28;20045;-35
2022/09/03 09:01:25;;;;;;;2.65;0.60;;;20.40;54.70;;;;;;5016661;28;20557;-35
2022/09/03 09:04:21;;;;;;;2.13;0.50;;;20.50;54.10;;;;;;5017450;28;20081;-35
2022/09/03 09:06:52;;;;;;;2.10;0.52;;;20.60;53.70;;;;;;5018937;28;20056;-36
2022/09/03 09:09:52;;;;;;;1.90;0.45;;;20.80;53.00;;;;;;5020716;28;20041;-36
2022/09/03 09:12:34;;;;;;;3.42;0.40;;;20.90;52.30;;;;;;5022461;28;20049;-36
2022/09/03 09:15:17;;;;;;;3.72;0.40;;;21.10;51.60;;;;;;5018397;28;20048;-37
2022/09/03 09:18:09;;;;;;;3.78;0.40;;;21.20;51.00;;;;;;5020485;28;20498;-39
2022/09/03 09:20:45;;;;;;;0.73;0.47;;;21.40;50.30;;;;;;5023741;28;20168;-36
2022/09/03 09:23:28;;;;;;;4.35;0.60;;;21.50;49.50;;;;;;5023491;28;20129;-37
2022/09/03 09:25:57;;;;;;;1.52;0.40;;;21.70;49.20;;;;;;5020908;28;20494;-36
2022/09/03 09:28:28;;;;;;;3.20;0.40;;;21.80;49.00;;;;;;5020265;28;20057;-36
2022/09/03 09:30:56;;;;;;;3.67;0.50;;;21.90;48.50;;;;;;5024279;28;20053;-36
2022/09/03 09:33:24;;;;;;;0.45;0.30;;;22.00;48.20;;;;;;5024466;28;20116;-40
2022/09/03 09:35:49;;;;;;;2.28;0.50;;;22.00;47.70;;;;;;5022698;28;20042;-36
2022/09/03 09:38:30;;;;;;;2.05;0.50;;;22.10;47.30;;;;;;5024996;28;20033;-39
2022/09/03 09:40:57;;;;;;;1.90;0.57;;;22.30;46.50;;;;;;5029300;28;20041;-37
2022/09/03 09:43:23;;;;;;;5.90;0.50;;;22.30;46.70;;;;;;5026045;28;20048;-36
2022/09/03 09:45:51;;;;;;;3.35;0.50;;;22.50;46.20;;;;;;5029730;28;20049;-37
2022/09/03 09:48:33;;;;;;;3.90;0.77;;;22.60;46.30;;;;;;5028720;28;20510;-38
2022/09/03 09:51:12;;;;;;;4.35;0.60;;;22.70;45.60;;;;;;5027224;28;20518;-36
2022/09/03 09:53:39;;;;;;;0.60;0.30;;;22.80;45.70;;;;;;5027695;28;20052;-37
2022/09/03 09:56:06;;;;;;;0.90;0.40;;;23.00;45.30;;;;;;5028989;28;20111;-38
2022/09/03 09:58:33;;;;;;;0.80;0.38;;;23.10;44.90;;;;;;5024184;28;20121;-36
2022/09/03 10:01:21;;;;;;;3.15;1.00;;;23.20;44.20;;;;;;5028595;28;20048;-37
2022/09/03 10:03:58;;;;;;;2.40;0.50;;;23.30;44.20;;;;;;5026327;28;20797;-37
2022/09/03 10:09:17;;;;;;;2.05;0.50;;;23.50;43.40;;;;;;5023409;28;20616;-36
2022/09/03 10:12:04;;;;;;;1.95;0.40;;;23.70;43.20;;;;;;5026742;28;20092;-37
2022/09/03 10:14:39;;;;;;;3.25;0.50;;;23.80;41.80;;;;;;5027378;28;20157;-37
2022/09/03 10:17:22;;;;;;;4.43;0.75;;;23.90;42.20;;;;;;5025673;28;20029;-36
2022/09/03 10:20:30;;;;;;;1.67;0.47;;;24.00;42.00;;;;;;5027320;28;20033;-36
2022/09/03 10:22:55;;;;;;;0.98;0.50;;;24.20;41.20;;;;;;5021593;28;20053;-36
2022/09/03 10:25:29;;;;;;;1.85;0.50;;;24.30;41.20;;;;;;5025625;28;20045;-35
2022/09/03 10:27:55;;;;;;;4.72;0.82;;;24.40;40.90;;;;;;5030269;28;20064;-36
2022/09/03 10:30:21;;;;;;;3.40;0.50;;;24.60;40.60;;;;;;5027943;28;20451;-36
2022/09/03 10:33:05;;;;;;;0.90;0.60;;;24.70;40.50;;;;;;5024342;28;20033;-36
2022/09/03 10:35:45;;;;;;;3.53;0.68;;;24.80;40.30;;;;;;5028783;28;20041;-38
2022/09/03 10:38:13;;;;;;;4.85;0.52;;;24.90;40.10;;;;;;5026082;28;20037;-37
2022/09/03 10:40:55;;;;;;;4.85;0.47;;;25.00;39.40;;;;;;5028294;28;20420;-34
2022/09/03 10:43:30;;;;;;;0.75;0.40;;;25.20;38.80;;;;;;5027236;28;20593;-38
2022/09/03 10:46:09;;;;;;;1.23;0.50;;;25.30;38.90;;;;;;5022992;28;20521;-37
2022/09/03 10:48:54;;;;;;;1.58;0.50;;;25.40;38.20;;;;;;5024376;28;20033;-37
2022/09/03 10:51:26;;;;;;;2.25;0.60;;;25.50;37.60;;;;;;5026728;28;20047;-36
2022/09/03 10:54:03;;;;;;;1.67;0.45;;;25.60;37.50;;;;;;5026263;28;20035;-37
2022/09/03 10:56:39;;;;;;;0.73;0.43;;;25.70;37.40;;;;;;5028266;28;20127;-38
2022/09/03 10:59:07;;;;;;;1.42;0.60;;;25.90;37.40;;;;;;5031255;28;20033;-37
2022/09/03 11:01:58;;;;;;;1.08;0.50;;;25.90;36.50;;;;;;5031532;28;20451;-39
2022/09/03 11:04:36;;;;;;;1.42;0.52;;;25.80;35.40;;;;;;5011063;28;20036;-36
2022/09/03 11:07:15;;;;;;;1.33;0.50;;;25.80;35.90;;;;;;5029941;28;20671;-36
2022/09/03 11:10:11;;;;;;;2.47;0.60;;;25.80;35.70;;;;;;5026035;28;20049;-37
2022/09/03 11:12:44;;;;;;;2.25;0.60;;;26.00;35.30;;;;;;5027060;28;20037;-38
2022/09/03 11:15:32;;;;;;;2.35;0.50;;;26.00;34.70;;;;;;5028490;28;20092;-36
2022/09/03 11:18:03;;;;;;;2.60;0.82;;;26.20;34.40;;;;;;5027954;28;20132;-36
2022/09/03 11:20:29;;;;;;;1.17;0.50;;;26.20;34.60;;;;;;5026696;28;20108;-35
2022/09/03 11:23:00;;;;;;;2.42;0.45;;;26.30;34.30;;;;;;5025875;28;20049;-36
2022/09/03 11:25:40;;;;;;;1.50;0.40;;;26.30;33.30;;;;;;5029368;28;20134;-35
2022/09/03 11:28:33;;;;;;;4.00;0.50;;;26.20;33.40;;;;;;5028602;28;20041;-36
2022/09/03 11:31:45;;;;;;;1.98;0.50;;;26.30;33.20;;;;;;5025714;28;20097;-35
2022/09/03 11:34:15;;;;;;;3.35;0.50;;;26.30;32.60;;;;;;5023178;28;20048;-37
2022/09/03 11:36:41;;;;;;;2.17;0.50;;;26.40;33.80;;;;;;5024591;28;20536;-35
2022/09/03 11:39:19;;;;;;;1.00;0.50;;;26.50;33.70;;;;;;5026348;28;20033;-36
2022/09/03 11:42:08;;;;;;;2.97;0.40;;;26.70;33.00;;;;;;5028341;28;20040;-38
2022/09/03 11:44:45;;;;;;;3.08;0.85;;;26.80;33.10;;;;;;5027091;28;20212;-36
2022/09/03 11:47:20;;;;;;;1.02;0.40;;;26.90;33.20;;;;;;5029691;28;20063;-34
2022/09/03 11:49:49;;;;;;;2.60;0.70;;;26.90;32.90;;;;;;5029160;28;20081;-36
2022/09/03 11:52:26;;;;;;;0.90;0.47;;;27.00;33.00;;;;;;5029050;28;20067;-36
2022/09/03 11:54:52;;;;;;;3.05;0.40;;;27.10;32.40;;;;;;5028409;28;20077;-37
2022/09/03 11:57:44;;;;;;;1.17;0.40;;;27.20;32.50;;;;;;5027781;28;20069;-37
2022/09/03 12:00:20;;;;;;;4.63;0.55;;;27.40;32.40;;;;;;5023917;28;20053;-35
2022/09/03 12:02:54;;;;;;;1.65;0.57;;;27.40;31.90;;;;;;5027896;28;20642;-36
2022/09/03 12:05:45;;;;;;;0.90;0.50;;;27.40;31.60;;;;;;5024962;28;20553;-35
2022/09/03 12:08:42;;;;;;;1.42;0.57;;;27.50;31.10;;;;;;5029754;28;20056;-37
2022/09/03 12:11:27;;;;;;;1.95;0.50;;;27.50;31.40;;;;;;5023995;28;20498;-36
2022/09/03 12:14:17;;;;;;;1.45;0.60;;;27.60;31.70;;;;;;5030370;28;20045;-37
2022/09/03 12:16:48;;;;;;;5.15;0.60;;;27.60;31.00;;;;;;5024353;28;20072;-34
2022/09/03 12:19:32;;;;;;;1.77;0.77;;;27.60;31.60;;;;;;5030723;28;20049;-35
2022/09/03 12:21:57;;;;;;;1.83;0.60;;;27.70;31.80;;;;;;5028552;28;20518;-36
2022/09/03 12:24:30;;;;;;;5.07;0.70;;;27.80;31.90;;;;;;5025974;28;20038;-37
2022/09/03 12:26:57;;;;;;;1.85;0.70;;;27.80;31.40;;;;;;5032277;28;20033;-37
2022/09/03 12:29:29;;;;;;;2.47;0.60;;;28.00;31.10;;;;;;5025184;28;20037;-38
2022/09/03 12:32:04;;;;;;;1.40;0.70;;;28.10;31.00;;;;;;5027109;28;20050;-37
2022/09/03 12:34:31;;;;;;;2.35;0.57;;;28.30;30.90;;;;;;5021591;28;20041;-37
2022/09/03 12:36:57;;;;;;;2.90;0.57;;;28.40;30.70;;;;;;5009466;28;20622;-39
2022/09/03 12:39:25;;;;;;;1.67;0.50;;;28.50;30.60;;;;;;5007040;28;20129;-36
2022/09/03 12:42:00;;;;;;;3.60;0.60;;;28.70;30.50;;;;;;5012517;28;20486;-37
2022/09/03 12:44:38;;;;;;;2.70;0.60;;;28.90;30.30;;;;;;5005408;28;20033;-40
2022/09/03 12:47:11;;;;;;;3.38;0.65;;;28.90;29.70;;;;;;5005637;28;20409;-36
2022/09/03 12:49:45;;;;;;;0.85;0.55;;;29.00;29.90;;;;;;5016008;28;20466;-39
2022/09/03 12:52:35;;;;;;;2.47;0.60;;;29.00;29.90;;;;;;5014381;28;20044;-51
2022/09/03 12:55:13;;;;;;;1.77;0.70;;;29.10;29.80;;;;;;5005482;28;20056;-41
2022/09/03 12:57:44;;;;;;;2.50;0.80;;;29.30;29.80;;;;;;5008503;28;20038;-36
2022/09/03 13:00:14;;;;;;;0.80;0.47;;;29.70;29.50;;;;;;5011906;28;20056;-43
2022/09/03 13:03:11;;;;;;;0.85;0.55;;;30.10;28.90;;;;;;5006562;28;20049;-49
2022/09/03 13:05:47;;;;;;;1.00;0.60;;;30.60;28.30;;;;;;5004095;28;20104;-42
2022/09/03 13:08:27;;;;;;;2.22;0.70;;;31.10;27.40;;;;;;5008294;28;20042;-40
2022/09/03 13:10:56;;;;;;;2.53;0.60;;;31.60;27.60;;;;;;5002815;28;20503;-43
2022/09/03 13:13:27;;;;;;;3.47;0.63;;;31.80;27.00;;;;;;5004925;28;20056;-40
2022/09/03 13:16:09;;;;;;;3.13;0.73;;;32.10;26.20;;;;;;5008817;28;20128;-43
2022/09/03 13:18:43;;;;;;;4.60;0.70;;;32.30;26.40;;;;;;5002141;28;20042;-35
2022/09/03 13:21:25;;;;;;;1.52;0.73;;;32.60;26.20;;;;;;5006155;28;20038;-35
2022/09/03 13:24:09;;;;;;;;;;;32.90;25.80;;;;;;5005759;28;20502;-36